sensor_id;sensor_type;location;lat;lon;timestamp;temperature;humidity
7646;DHT22;3864;48.180;14.178;2023-09-19T00:02:26;15.70;99.90
7646;DHT22;3864;48.180;14.178;2023-09-19T00:04:53;15.70;99.90
7646;DHT22;3864;48.180;14.178;2023-09-19T00:07:20;15.70;99.90
7646;DHT22;3864;48.180;14.178;2023-09-19T00:09:47;15.70;99.90
7646;DHT22;3864;48.180;14.178;2023-09-19T00:12:14;15.80;99.90
7646;DHT22;3864;48.180;14.178;2023-09-19T00:14:43;15.70;99.90
7646;DHT22;3864;48.180;14.178;2023-09-19T00:17:10;15.70;99.90
7646;DHT22;3864;48.180;14.178;2023-09-19T00:19:37;15.70;99.90
7646;DHT22;3864;48.180;14.178;2023-09-19T00:22:04;15.70;99.90
7646;DHT22;3864;48.180;14.178;2023-09-19T00:24:31;15.70;99.90
7646;DHT22;3864;48.180;14.178;2023-09-19T00:26:58;15.70;99.90
7646;DHT22;3864;48.180;14.178;2023-09-19T00:29:25;15.70;99.90
7646;DHT22;3864;48.180;14.178;2023-09-19T00:31:57;15.80;99.90
7646;DHT22;3864;48.180;14.178;2023-09-19T00:34:24;15.80;99.90
7646;DHT22;3864;48.180;14.178;2023-09-19T00:36:53;15.80;99.90
7646;DHT22;3864;48.180;14.178;2023-09-19T00:39:20;15.80;99.90
7646;DHT22;3864;48.180;14.178;2023-09-19T00:41:47;15.80;99.90
7646;DHT22;3864;48.180;14.178;2023-09-19T00:44:16;15.70;99.90
7646;DHT22;3864;48.180;14.178;2023-09-19T00:46:45;15.70;99.90
7646;DHT22;3864;48.180;14.178;2023-09-19T00:49:16;15.70;99.90
7646;DHT22;3864;48.180;14.178;2023-09-19T00:51:46;15.70;99.90
7646;DHT22;3864;48.180;14.178;2023-09-19T00:54:14;15.70;99.90
7646;DHT22;3864;48.180;14.178;2023-09-19T00:56:45;15.70;99.90
7646;DHT22;3864;48.180;14.178;2023-09-19T00:59:12;15.70;99.90
7646;DHT22;3864;48.180;14.178;2023-09-19T01:01:40;15.70;99.90
7646;DHT22;3864;48.180;14.178;2023-09-19T01:04:07;15.70;99.90
7646;DHT22;3864;48.180;14.178;2023-09-19T01:06:37;15.70;99.90
7646;DHT22;3864;48.180;14.178;2023-09-19T01:09:05;15.70;99.90
7646;DHT22;3864;48.180;14.178;2023-09-19T01:11:37;15.70;99.90
7646;DHT22;3864;48.180;14.178;2023-09-19T01:14:15;15.60;99.90
7646;DHT22;3864;48.180;14.178;2023-09-19T01:16:56;15.60;99.90
7646;DHT22;3864;48.180;14.178;2023-09-19T01:20:04;15.60;99.90
7646;DHT22;3864;48.180;14.178;2023-09-19T01:22:41;15.50;99.90
7646;DHT22;3864;48.180;14.178;2023-09-19T01:25:54;15.50;99.90
7646;DHT22;3864;48.180;14.178;2023-09-19T01:28:39;15.50;99.90
7646;DHT22;3864;48.180;14.178;2023-09-19T01:31:12;15.50;99.90
7646;DHT22;3864;48.180;14.178;2023-09-19T01:33:56;15.50;99.90
7646;DHT22;3864;48.180;14.178;2023-09-19T01:36:31;15.40;99.90
7646;DHT22;3864;48.180;14.178;2023-09-19T01:39:00;15.40;99.90
7646;DHT22;3864;48.180;14.178;2023-09-19T01:41:45;15.40;99.90
7646;DHT22;3864;48.180;14.178;2023-09-19T01:44:22;15.40;99.90
7646;DHT22;3864;48.180;14.178;2023-09-19T01:46:52;15.40;99.90
7646;DHT22;3864;48.180;14.178;2023-09-19T01:49:30;15.40;99.90
7646;DHT22;3864;48.180;14.178;2023-09-19T01:52:04;15.40;99.90
7646;DHT22;3864;48.180;14.178;2023-09-19T01:54:36;15.30;99.90
7646;DHT22;3864;48.180;14.178;2023-09-19T01:57:11;15.30;99.90
7646;DHT22;3864;48.180;14.178;2023-09-19T01:59:45;15.30;99.90
7646;DHT22;3864;48.180;14.178;2023-09-19T02:02:18;15.30;99.90
7646;DHT22;3864;48.180;14.178;2023-09-19T02:04:48;15.30;99.90
7646;DHT22;3864;48.180;14.178;2023-09-19T02:07:16;15.20;99.90
7646;DHT22;3864;48.180;14.178;2023-09-19T02:09:43;15.20;99.90
7646;DHT22;3864;48.180;14.178;2023-09-19T02:12:11;15.30;99.90
7646;DHT22;3864;48.180;14.178;2023-09-19T02:14:38;15.20;99.90
7646;DHT22;3864;48.180;14.178;2023-09-19T02:17:06;15.20;99.90
7646;DHT22;3864;48.180;14.178;2023-09-19T02:19:38;15.20;99.90
7646;DHT22;3864;48.180;14.178;2023-09-19T02:22:07;15.10;99.90
7646;DHT22;3864;48.180;14.178;2023-09-19T02:24:36;15.10;99.90
7646;DHT22;3864;48.180;14.178;2023-09-19T02:27:04;15.20;99.90
7646;DHT22;3864;48.180;14.178;2023-09-19T02:29:31;15.10;99.90
7646;DHT22;3864;48.180;14.178;2023-09-19T02:32:00;15.10;99.90
7646;DHT22;3864;48.180;14.178;2023-09-19T02:34:27;15.10;99.90
7646;DHT22;3864;48.180;14.178;2023-09-19T02:36:56;15.10;99.90
7646;DHT22;3864;48.180;14.178;2023-09-19T02:39:23;15.10;99.90
7646;DHT22;3864;48.180;14.178;2023-09-19T02:41:50;15.10;99.90
7646;DHT22;3864;48.180;14.178;2023-09-19T02:44:18;15.00;99.90
7646;DHT22;3864;48.180;14.178;2023-09-19T02:46:45;15.00;99.90
7646;DHT22;3864;48.180;14.178;2023-09-19T02:49:13;15.00;99.90
7646;DHT22;3864;48.180;14.178;2023-09-19T02:51:40;15.00;99.90
7646;DHT22;3864;48.180;14.178;2023-09-19T02:54:10;15.10;99.90
7646;DHT22;3864;48.180;14.178;2023-09-19T02:56:37;15.10;99.90
7646;DHT22;3864;48.180;14.178;2023-09-19T02:59:05;15.00;99.90
7646;DHT22;3864;48.180;14.178;2023-09-19T03:01:33;15.00;99.90
7646;DHT22;3864;48.180;14.178;2023-09-19T03:04:00;15.00;99.90
7646;DHT22;3864;48.180;14.178;2023-09-19T03:06:28;14.90;99.90
7646;DHT22;3864;48.180;14.178;2023-09-19T03:08:56;14.90;99.90
7646;DHT22;3864;48.180;14.178;2023-09-19T03:11:27;14.90;99.90
7646;DHT22;3864;48.180;14.178;2023-09-19T03:13:55;14.90;99.90
7646;DHT22;3864;48.180;14.178;2023-09-19T03:16:22;14.90;99.90
7646;DHT22;3864;48.180;14.178;2023-09-19T03:18:51;14.80;99.90
7646;DHT22;3864;48.180;14.178;2023-09-19T03:21:18;14.80;99.90
7646;DHT22;3864;48.180;14.178;2023-09-19T03:23:47;14.80;99.90
7646;DHT22;3864;48.180;14.178;2023-09-19T03:26:14;14.80;99.90
7646;DHT22;3864;48.180;14.178;2023-09-19T03:28:44;14.80;99.90
7646;DHT22;3864;48.180;14.178;2023-09-19T03:31:12;14.80;99.90
7646;DHT22;3864;48.180;14.178;2023-09-19T03:33:40;14.80;99.90
7646;DHT22;3864;48.180;14.178;2023-09-19T03:36:07;14.70;99.90
7646;DHT22;3864;48.180;14.178;2023-09-19T03:38:34;14.70;99.90
7646;DHT22;3864;48.180;14.178;2023-09-19T03:41:02;14.70;99.90
7646;DHT22;3864;48.180;14.178;2023-09-19T03:43:29;14.80;99.90
7646;DHT22;3864;48.180;14.178;2023-09-19T03:46:02;14.80;99.90
7646;DHT22;3864;48.180;14.178;2023-09-19T03:48:30;14.80;99.90
7646;DHT22;3864;48.180;14.178;2023-09-19T03:50:57;14.80;99.90
7646;DHT22;3864;48.180;14.178;2023-09-19T03:53:24;14.80;99.90
7646;DHT22;3864;48.180;14.178;2023-09-19T03:55:51;14.80;99.90
7646;DHT22;3864;48.180;14.178;2023-09-19T03:58:18;14.80;99.90
7646;DHT22;3864;48.180;14.178;2023-09-19T04:00:46;14.80;99.90
7646;DHT22;3864;48.180;14.178;2023-09-19T04:03:15;14.90;99.90
7646;DHT22;3864;48.180;14.178;2023-09-19T04:05:46;14.80;99.90
7646;DHT22;3864;48.180;14.178;2023-09-19T04:08:13;14.80;99.90
7646;DHT22;3864;48.180;14.178;2023-09-19T04:10:42;14.80;99.90
7646;DHT22;3864;48.180;14.178;2023-09-19T04:13:10;14.80;99.90
7646;DHT22;3864;48.180;14.178;2023-09-19T04:15:37;14.70;99.90
7646;DHT22;3864;48.180;14.178;2023-09-19T04:18:06;14.80;99.90
7646;DHT22;3864;48.180;14.178;2023-09-19T04:20:34;14.80;99.90
7646;DHT22;3864;48.180;14.178;2023-09-19T04:23:02;14.70;99.90
7646;DHT22;3864;48.180;14.178;2023-09-19T04:25:30;14.70;99.90
7646;DHT22;3864;48.180;14.178;2023-09-19T04:27:57;14.70;99.90
7646;DHT22;3864;48.180;14.178;2023-09-19T04:30:24;14.70;99.90
7646;DHT22;3864;48.180;14.178;2023-09-19T04:32:52;14.70;99.90
7646;DHT22;3864;48.180;14.178;2023-09-19T04:35:19;14.70;99.90
7646;DHT22;3864;48.180;14.178;2023-09-19T04:37:48;14.70;99.90
7646;DHT22;3864;48.180;14.178;2023-09-19T04:40:17;14.70;99.90
7646;DHT22;3864;48.180;14.178;2023-09-19T04:42:45;14.60;99.90
7646;DHT22;3864;48.180;14.178;2023-09-19T04:45:13;14.60;99.90
7646;DHT22;3864;48.180;14.178;2023-09-19T04:47:41;14.60;99.90
7646;DHT22;3864;48.180;14.178;2023-09-19T04:50:09;14.60;99.90
7646;DHT22;3864;48.180;14.178;2023-09-19T04:52:40;14.60;99.90
7646;DHT22;3864;48.180;14.178;2023-09-19T04:55:12;14.60;99.90
7646;DHT22;3864;48.180;14.178;2023-09-19T04:57:42;14.60;99.90
7646;DHT22;3864;48.180;14.178;2023-09-19T05:00:12;14.60;99.90
7646;DHT22;3864;48.180;14.178;2023-09-19T05:02:40;14.60;99.90
7646;DHT22;3864;48.180;14.178;2023-09-19T05:05:07;14.70;99.90
7646;DHT22;3864;48.180;14.178;2023-09-19T05:07:35;14.70;99.90
7646;DHT22;3864;48.180;14.178;2023-09-19T05:10:03;14.70;99.90
7646;DHT22;3864;48.180;14.178;2023-09-19T05:12:34;14.80;99.90
7646;DHT22;3864;48.180;14.178;2023-09-19T05:15:02;14.80;99.90
7646;DHT22;3864;48.180;14.178;2023-09-19T05:17:29;14.80;99.90
7646;DHT22;3864;48.180;14.178;2023-09-19T05:19:57;14.80;99.90
7646;DHT22;3864;48.180;14.178;2023-09-19T05:22:27;14.90;99.90
7646;DHT22;3864;48.180;14.178;2023-09-19T05:24:54;14.90;99.90
7646;DHT22;3864;48.180;14.178;2023-09-19T05:27:21;14.90;99.90
7646;DHT22;3864;48.180;14.178;2023-09-19T05:29:50;14.90;99.90
7646;DHT22;3864;48.180;14.178;2023-09-19T05:32:19;14.90;99.90
7646;DHT22;3864;48.180;14.178;2023-09-19T05:34:49;14.90;99.90
7646;DHT22;3864;48.180;14.178;2023-09-19T05:37:18;15.00;99.90
7646;DHT22;3864;48.180;14.178;2023-09-19T05:39:46;15.00;99.90
7646;DHT22;3864;48.180;14.178;2023-09-19T05:42:13;15.00;99.90
7646;DHT22;3864;48.180;14.178;2023-09-19T05:44:40;15.10;99.90
7646;DHT22;3864;48.180;14.178;2023-09-19T05:47:08;15.10;99.90
7646;DHT22;3864;48.180;14.178;2023-09-19T05:49:35;15.10;99.90
7646;DHT22;3864;48.180;14.178;2023-09-19T05:52:05;15.10;99.90
7646;DHT22;3864;48.180;14.178;2023-09-19T05:54:32;15.10;99.90
7646;DHT22;3864;48.180;14.178;2023-09-19T05:56:59;15.10;99.90
7646;DHT22;3864;48.180;14.178;2023-09-19T05:59:27;15.10;99.90
7646;DHT22;3864;48.180;14.178;2023-09-19T06:01:54;15.20;99.90
7646;DHT22;3864;48.180;14.178;2023-09-19T06:04:23;15.20;99.90
7646;DHT22;3864;48.180;14.178;2023-09-19T06:06:51;15.30;99.90
7646;DHT22;3864;48.180;14.178;2023-09-19T06:09:18;15.30;99.90
7646;DHT22;3864;48.180;14.178;2023-09-19T06:11:45;15.40;99.90
7646;DHT22;3864;48.180;14.178;2023-09-19T06:14:12;15.40;99.90
7646;DHT22;3864;48.180;14.178;2023-09-19T06:16:39;15.50;99.90
7646;DHT22;3864;48.180;14.178;2023-09-19T06:19:07;15.50;99.90
7646;DHT22;3864;48.180;14.178;2023-09-19T06:21:36;15.60;99.90
7646;DHT22;3864;48.180;14.178;2023-09-19T06:24:05;15.70;99.90
7646;DHT22;3864;48.180;14.178;2023-09-19T06:26:32;15.70;99.90
7646;DHT22;3864;48.180;14.178;2023-09-19T06:28:59;15.70;99.90
7646;DHT22;3864;48.180;14.178;2023-09-19T06:31:26;15.90;99.90
7646;DHT22;3864;48.180;14.178;2023-09-19T06:33:54;16.10;99.90
7646;DHT22;3864;48.180;14.178;2023-09-19T06:36:21;16.40;99.90
7646;DHT22;3864;48.180;14.178;2023-09-19T06:38:49;16.60;99.90
7646;DHT22;3864;48.180;14.178;2023-09-19T06:41:18;16.70;99.90
7646;DHT22;3864;48.180;14.178;2023-09-19T06:43:45;16.80;99.90
7646;DHT22;3864;48.180;14.178;2023-09-19T06:46:12;16.80;99.90
7646;DHT22;3864;48.180;14.178;2023-09-19T06:48:39;16.80;99.90
7646;DHT22;3864;48.180;14.178;2023-09-19T06:51:09;16.80;99.90
7646;DHT22;3864;48.180;14.178;2023-09-19T06:53:36;16.80;99.90
7646;DHT22;3864;48.180;14.178;2023-09-19T06:56:07;16.80;99.90
7646;DHT22;3864;48.180;14.178;2023-09-19T06:58:34;16.90;99.90
7646;DHT22;3864;48.180;14.178;2023-09-19T07:01:02;16.90;99.90
7646;DHT22;3864;48.180;14.178;2023-09-19T07:03:30;16.80;99.90
7646;DHT22;3864;48.180;14.178;2023-09-19T07:05:59;16.60;99.90
7646;DHT22;3864;48.180;14.178;2023-09-19T07:08:26;16.50;99.90
7646;DHT22;3864;48.180;14.178;2023-09-19T07:10:53;16.40;99.90
7646;DHT22;3864;48.180;14.178;2023-09-19T07:13:24;16.30;99.90
7646;DHT22;3864;48.180;14.178;2023-09-19T07:15:51;16.30;99.90
7646;DHT22;3864;48.180;14.178;2023-09-19T07:18:19;16.30;99.90
7646;DHT22;3864;48.180;14.178;2023-09-19T07:20:47;16.30;99.90
7646;DHT22;3864;48.180;14.178;2023-09-19T07:23:16;16.40;99.90
7646;DHT22;3864;48.180;14.178;2023-09-19T07:25:44;16.60;99.90
7646;DHT22;3864;48.180;14.178;2023-09-19T07:28:11;16.90;99.90
7646;DHT22;3864;48.180;14.178;2023-09-19T07:30:40;17.30;99.90
7646;DHT22;3864;48.180;14.178;2023-09-19T07:33:08;17.60;99.90
7646;DHT22;3864;48.180;14.178;2023-09-19T07:35:37;17.90;99.90
7646;DHT22;3864;48.180;14.178;2023-09-19T07:38:06;18.10;99.90
7646;DHT22;3864;48.180;14.178;2023-09-19T07:40:33;18.30;99.90
7646;DHT22;3864;48.180;14.178;2023-09-19T07:43:00;18.30;99.90
7646;DHT22;3864;48.180;14.178;2023-09-19T07:45:29;18.20;99.90
7646;DHT22;3864;48.180;14.178;2023-09-19T07:47:58;18.00;99.90
7646;DHT22;3864;48.180;14.178;2023-09-19T07:50:27;17.80;99.90
7646;DHT22;3864;48.180;14.178;2023-09-19T07:52:54;17.70;99.90
7646;DHT22;3864;48.180;14.178;2023-09-19T07:55:22;17.70;99.90
7646;DHT22;3864;48.180;14.178;2023-09-19T07:57:50;17.60;99.90
7646;DHT22;3864;48.180;14.178;2023-09-19T08:00:18;17.60;99.90
7646;DHT22;3864;48.180;14.178;2023-09-19T08:02:45;17.70;99.90
7646;DHT22;3864;48.180;14.178;2023-09-19T08:05:14;17.70;99.90
7646;DHT22;3864;48.180;14.178;2023-09-19T08:07:45;17.90;99.90
7646;DHT22;3864;48.180;14.178;2023-09-19T08:10:14;18.00;99.90
7646;DHT22;3864;48.180;14.178;2023-09-19T08:12:45;18.10;99.90
7646;DHT22;3864;48.180;14.178;2023-09-19T08:15:13;18.30;99.90
7646;DHT22;3864;48.180;14.178;2023-09-19T08:17:40;18.50;99.90
7646;DHT22;3864;48.180;14.178;2023-09-19T08:20:08;18.70;99.90
7646;DHT22;3864;48.180;14.178;2023-09-19T08:22:44;18.70;99.90
7646;DHT22;3864;48.180;14.178;2023-09-19T08:25:14;18.80;99.90
7646;DHT22;3864;48.180;14.178;2023-09-19T08:27:43;19.10;99.90
7646;DHT22;3864;48.180;14.178;2023-09-19T08:30:13;19.20;99.90
7646;DHT22;3864;48.180;14.178;2023-09-19T08:32:41;19.50;99.90
7646;DHT22;3864;48.180;14.178;2023-09-19T08:35:09;19.40;99.90
7646;DHT22;3864;48.180;14.178;2023-09-19T08:37:36;19.40;99.90
7646;DHT22;3864;48.180;14.178;2023-09-19T08:40:07;19.30;99.90
7646;DHT22;3864;48.180;14.178;2023-09-19T08:42:48;19.10;99.90
7646;DHT22;3864;48.180;14.178;2023-09-19T08:45:16;18.90;99.90
7646;DHT22;3864;48.180;14.178;2023-09-19T08:47:46;18.80;99.90
7646;DHT22;3864;48.180;14.178;2023-09-19T08:50:19;18.90;99.90
7646;DHT22;3864;48.180;14.178;2023-09-19T08:52:51;19.10;99.90
7646;DHT22;3864;48.180;14.178;2023-09-19T08:55:26;19.30;99.90
7646;DHT22;3864;48.180;14.178;2023-09-19T08:57:59;19.40;99.90
7646;DHT22;3864;48.180;14.178;2023-09-19T09:00:28;19.40;99.90
7646;DHT22;3864;48.180;14.178;2023-09-19T09:02:56;19.60;99.90
7646;DHT22;3864;48.180;14.178;2023-09-19T09:05:24;19.70;99.90
7646;DHT22;3864;48.180;14.178;2023-09-19T09:07:52;19.70;99.90
7646;DHT22;3864;48.180;14.178;2023-09-19T09:10:23;19.90;99.90
7646;DHT22;3864;48.180;14.178;2023-09-19T09:12:52;20.00;99.90
7646;DHT22;3864;48.180;14.178;2023-09-19T09:15:22;20.00;99.90
7646;DHT22;3864;48.180;14.178;2023-09-19T09:17:49;19.90;99.90
7646;DHT22;3864;48.180;14.178;2023-09-19T09:20:18;20.00;99.90
7646;DHT22;3864;48.180;14.178;2023-09-19T09:22:52;20.20;99.90
7646;DHT22;3864;48.180;14.178;2023-09-19T09:25:20;20.10;99.90
7646;DHT22;3864;48.180;14.178;2023-09-19T09:27:59;20.30;99.90
7646;DHT22;3864;48.180;14.178;2023-09-19T09:30:33;20.40;99.90
7646;DHT22;3864;48.180;14.178;2023-09-19T09:33:08;20.60;99.90
7646;DHT22;3864;48.180;14.178;2023-09-19T09:35:36;20.80;99.90
7646;DHT22;3864;48.180;14.178;2023-09-19T09:38:04;21.00;99.90
7646;DHT22;3864;48.180;14.178;2023-09-19T09:40:46;20.70;99.90
7646;DHT22;3864;48.180;14.178;2023-09-19T09:43:31;20.60;99.90
7646;DHT22;3864;48.180;14.178;2023-09-19T09:46:12;20.50;99.90
7646;DHT22;3864;48.180;14.178;2023-09-19T09:48:57;20.40;99.90
7646;DHT22;3864;48.180;14.178;2023-09-19T09:51:44;20.40;99.90
7646;DHT22;3864;48.180;14.178;2023-09-19T09:54:19;20.40;99.90
7646;DHT22;3864;48.180;14.178;2023-09-19T09:56:54;20.20;99.90
7646;DHT22;3864;48.180;14.178;2023-09-19T09:59:48;20.30;99.90
7646;DHT22;3864;48.180;14.178;2023-09-19T10:02:20;20.50;99.90
7646;DHT22;3864;48.180;14.178;2023-09-19T10:04:51;20.70;99.90
7646;DHT22;3864;48.180;14.178;2023-09-19T10:07:28;21.10;99.90
7646;DHT22;3864;48.180;14.178;2023-09-19T10:09:59;21.40;99.90
7646;DHT22;3864;48.180;14.178;2023-09-19T10:12:38;21.50;99.90
7646;DHT22;3864;48.180;14.178;2023-09-19T10:15:11;21.40;99.90
7646;DHT22;3864;48.180;14.178;2023-09-19T10:17:43;21.50;99.90
7646;DHT22;3864;48.180;14.178;2023-09-19T10:20:15;21.40;99.90
7646;DHT22;3864;48.180;14.178;2023-09-19T10:23:00;21.40;99.90
7646;DHT22;3864;48.180;14.178;2023-09-19T10:25:29;21.30;99.90
7646;DHT22;3864;48.180;14.178;2023-09-19T10:27:57;21.00;99.90
7646;DHT22;3864;48.180;14.178;2023-09-19T10:30:31;21.40;99.90
7646;DHT22;3864;48.180;14.178;2023-09-19T10:33:02;21.80;99.90
7646;DHT22;3864;48.180;14.178;2023-09-19T10:35:29;22.10;99.90
7646;DHT22;3864;48.180;14.178;2023-09-19T10:38:00;22.40;99.90
7646;DHT22;3864;48.180;14.178;2023-09-19T10:40:28;22.60;99.90
7646;DHT22;3864;48.180;14.178;2023-09-19T10:43:01;23.20;99.90
7646;DHT22;3864;48.180;14.178;2023-09-19T10:45:34;23.60;99.90
7646;DHT22;3864;48.180;14.178;2023-09-19T10:48:05;23.50;99.90
7646;DHT22;3864;48.180;14.178;2023-09-19T10:50:36;22.90;99.90
7646;DHT22;3864;48.180;14.178;2023-09-19T10:53:05;22.50;99.90
7646;DHT22;3864;48.180;14.178;2023-09-19T10:55:34;22.10;99.90
7646;DHT22;3864;48.180;14.178;2023-09-19T10:58:03;21.60;99.90
7646;DHT22;3864;48.180;14.178;2023-09-19T11:00:56;21.10;99.90
7646;DHT22;3864;48.180;14.178;2023-09-19T11:03:27;20.90;99.90
7646;DHT22;3864;48.180;14.178;2023-09-19T11:06:02;20.80;99.90
7646;DHT22;3864;48.180;14.178;2023-09-19T11:09:00;20.70;99.90
7646;DHT22;3864;48.180;14.178;2023-09-19T11:11:49;20.60;99.90
7646;DHT22;3864;48.180;14.178;2023-09-19T11:14:43;20.40;99.90
7646;DHT22;3864;48.180;14.178;2023-09-19T11:17:40;20.80;99.90
7646;DHT22;3864;48.180;14.178;2023-09-19T11:20:23;21.50;99.90
7646;DHT22;3864;48.180;14.178;2023-09-19T11:23:18;22.20;99.90
7646;DHT22;3864;48.180;14.178;2023-09-19T11:25:49;22.80;99.90
7646;DHT22;3864;48.180;14.178;2023-09-19T11:28:31;23.10;99.90
7646;DHT22;3864;48.180;14.178;2023-09-19T11:30:58;23.30;99.90
7646;DHT22;3864;48.180;14.178;2023-09-19T11:33:28;23.80;99.90
7646;DHT22;3864;48.180;14.178;2023-09-19T11:36:04;23.90;99.90
7646;DHT22;3864;48.180;14.178;2023-09-19T11:39:01;24.30;99.90
7646;DHT22;3864;48.180;14.178;2023-09-19T11:41:38;24.20;99.90
7646;DHT22;3864;48.180;14.178;2023-09-19T11:44:33;24.60;99.90
7646;DHT22;3864;48.180;14.178;2023-09-19T11:47:02;25.10;99.90
7646;DHT22;3864;48.180;14.178;2023-09-19T11:49:33;25.30;99.90
7646;DHT22;3864;48.180;14.178;2023-09-19T11:52:04;24.80;99.90
7646;DHT22;3864;48.180;14.178;2023-09-19T11:54:34;24.60;99.90
7646;DHT22;3864;48.180;14.178;2023-09-19T11:57:06;24.40;99.90
7646;DHT22;3864;48.180;14.178;2023-09-19T11:59:38;23.80;99.90
7646;DHT22;3864;48.180;14.178;2023-09-19T12:02:07;23.20;99.90
7646;DHT22;3864;48.180;14.178;2023-09-19T12:04:38;23.00;99.90
7646;DHT22;3864;48.180;14.178;2023-09-19T12:07:10;22.80;99.90
7646;DHT22;3864;48.180;14.178;2023-09-19T12:09:42;22.90;99.90
7646;DHT22;3864;48.180;14.178;2023-09-19T12:12:19;22.90;99.90
7646;DHT22;3864;48.180;14.178;2023-09-19T12:14:48;22.60;99.90
7646;DHT22;3864;48.180;14.178;2023-09-19T12:17:16;22.30;99.90
7646;DHT22;3864;48.180;14.178;2023-09-19T12:19:52;22.10;99.90
7646;DHT22;3864;48.180;14.178;2023-09-19T12:22:19;21.80;99.90
7646;DHT22;3864;48.180;14.178;2023-09-19T12:24:47;21.60;99.90
7646;DHT22;3864;48.180;14.178;2023-09-19T12:27:16;21.30;99.90
7646;DHT22;3864;48.180;14.178;2023-09-19T12:29:44;21.10;99.90
7646;DHT22;3864;48.180;14.178;2023-09-19T12:32:12;21.00;99.90
7646;DHT22;3864;48.180;14.178;2023-09-19T12:34:49;21.10;99.90
7646;DHT22;3864;48.180;14.178;2023-09-19T12:37:19;21.20;99.90
7646;DHT22;3864;48.180;14.178;2023-09-19T12:39:49;21.50;99.90
7646;DHT22;3864;48.180;14.178;2023-09-19T12:42:17;21.60;99.90
7646;DHT22;3864;48.180;14.178;2023-09-19T12:44:47;21.80;99.90
7646;DHT22;3864;48.180;14.178;2023-09-19T12:47:15;22.10;99.90
7646;DHT22;3864;48.180;14.178;2023-09-19T12:50:08;22.10;99.90
7646;DHT22;3864;48.180;14.178;2023-09-19T12:52:41;22.80;99.90
7646;DHT22;3864;48.180;14.178;2023-09-19T12:55:19;23.20;99.90
7646;DHT22;3864;48.180;14.178;2023-09-19T12:58:00;23.60;99.90
7646;DHT22;3864;48.180;14.178;2023-09-19T13:00:33;23.90;99.90
7646;DHT22;3864;48.180;14.178;2023-09-19T13:03:15;24.00;99.90
7646;DHT22;3864;48.180;14.178;2023-09-19T13:05:51;24.40;99.90
7646;DHT22;3864;48.180;14.178;2023-09-19T13:08:36;24.40;99.90
7646;DHT22;3864;48.180;14.178;2023-09-19T13:11:10;24.50;99.90
7646;DHT22;3864;48.180;14.178;2023-09-19T13:13:39;24.50;99.90
7646;DHT22;3864;48.180;14.178;2023-09-19T13:16:07;24.40;99.90
7646;DHT22;3864;48.180;14.178;2023-09-19T13:18:45;24.60;99.90
7646;DHT22;3864;48.180;14.178;2023-09-19T13:21:13;24.60;99.90
7646;DHT22;3864;48.180;14.178;2023-09-19T13:23:50;24.20;99.90
7646;DHT22;3864;48.180;14.178;2023-09-19T13:26:17;24.50;99.90
7646;DHT22;3864;48.180;14.178;2023-09-19T13:28:45;24.60;99.90
7646;DHT22;3864;48.180;14.178;2023-09-19T13:31:13;24.60;99.90
7646;DHT22;3864;48.180;14.178;2023-09-19T13:33:43;24.80;99.90
7646;DHT22;3864;48.180;14.178;2023-09-19T13:36:11;24.70;99.90
7646;DHT22;3864;48.180;14.178;2023-09-19T13:38:40;24.10;99.90
7646;DHT22;3864;48.180;14.178;2023-09-19T13:41:11;23.90;99.90
7646;DHT22;3864;48.180;14.178;2023-09-19T13:43:38;22.70;99.90
7646;DHT22;3864;48.180;14.178;2023-09-19T13:46:06;21.50;99.90
7646;DHT22;3864;48.180;14.178;2023-09-19T13:48:37;20.90;99.90
7646;DHT22;3864;48.180;14.178;2023-09-19T13:51:05;20.20;99.90
7646;DHT22;3864;48.180;14.178;2023-09-19T13:53:33;19.30;99.90
7646;DHT22;3864;48.180;14.178;2023-09-19T13:56:01;19.20;99.90
7646;DHT22;3864;48.180;14.178;2023-09-19T13:58:30;19.30;99.90
7646;DHT22;3864;48.180;14.178;2023-09-19T14:00:59;19.40;99.90
7646;DHT22;3864;48.180;14.178;2023-09-19T14:03:26;19.30;99.90
7646;DHT22;3864;48.180;14.178;2023-09-19T14:05:55;19.60;99.90
7646;DHT22;3864;48.180;14.178;2023-09-19T14:08:22;19.60;99.90
7646;DHT22;3864;48.180;14.178;2023-09-19T14:10:50;19.70;99.90
7646;DHT22;3864;48.180;14.178;2023-09-19T14:13:17;20.00;99.90
7646;DHT22;3864;48.180;14.178;2023-09-19T14:15:48;20.00;99.90
7646;DHT22;3864;48.180;14.178;2023-09-19T14:18:15;19.80;99.90
7646;DHT22;3864;48.180;14.178;2023-09-19T14:20:44;19.50;99.90
7646;DHT22;3864;48.180;14.178;2023-09-19T14:23:11;19.40;99.90
7646;DHT22;3864;48.180;14.178;2023-09-19T14:25:39;19.20;99.90
7646;DHT22;3864;48.180;14.178;2023-09-19T14:28:07;19.00;99.90
7646;DHT22;3864;48.180;14.178;2023-09-19T14:30:35;19.10;99.90
7646;DHT22;3864;48.180;14.178;2023-09-19T14:33:05;19.00;99.90
7646;DHT22;3864;48.180;14.178;2023-09-19T14:35:33;18.90;99.90
7646;DHT22;3864;48.180;14.178;2023-09-19T14:38:01;19.00;99.90
7646;DHT22;3864;48.180;14.178;2023-09-19T14:40:29;18.90;99.90
7646;DHT22;3864;48.180;14.178;2023-09-19T14:42:56;18.90;99.90
7646;DHT22;3864;48.180;14.178;2023-09-19T14:45:24;19.00;99.90
7646;DHT22;3864;48.180;14.178;2023-09-19T14:47:52;19.10;99.90
7646;DHT22;3864;48.180;14.178;2023-09-19T14:50:22;19.20;99.90
7646;DHT22;3864;48.180;14.178;2023-09-19T14:52:50;19.40;99.90
7646;DHT22;3864;48.180;14.178;2023-09-19T14:55:19;19.60;99.90
7646;DHT22;3864;48.180;14.178;2023-09-19T14:57:49;19.70;99.90
7646;DHT22;3864;48.180;14.178;2023-09-19T15:00:17;19.70;99.90
7646;DHT22;3864;48.180;14.178;2023-09-19T15:02:46;19.80;99.90
7646;DHT22;3864;48.180;14.178;2023-09-19T15:05:15;19.50;99.90
7646;DHT22;3864;48.180;14.178;2023-09-19T15:07:44;19.60;99.90
7646;DHT22;3864;48.180;14.178;2023-09-19T15:10:11;19.80;99.90
7646;DHT22;3864;48.180;14.178;2023-09-19T15:12:39;20.10;99.90
7646;DHT22;3864;48.180;14.178;2023-09-19T15:15:06;20.50;99.90
7646;DHT22;3864;48.180;14.178;2023-09-19T15:17:35;21.00;99.90
7646;DHT22;3864;48.180;14.178;2023-09-19T15:20:02;21.20;99.90
7646;DHT22;3864;48.180;14.178;2023-09-19T15:22:32;21.40;99.90
7646;DHT22;3864;48.180;14.178;2023-09-19T15:25:00;21.30;99.90
7646;DHT22;3864;48.180;14.178;2023-09-19T15:27:27;20.90;99.90
7646;DHT22;3864;48.180;14.178;2023-09-19T15:29:56;20.90;99.90
7646;DHT22;3864;48.180;14.178;2023-09-19T15:32:23;20.70;99.90
7646;DHT22;3864;48.180;14.178;2023-09-19T15:34:50;20.60;99.90
7646;DHT22;3864;48.180;14.178;2023-09-19T15:37:18;20.70;99.90
7646;DHT22;3864;48.180;14.178;2023-09-19T15:39:46;20.80;99.90
7646;DHT22;3864;48.180;14.178;2023-09-19T15:42:14;21.00;99.90
7646;DHT22;3864;48.180;14.178;2023-09-19T15:44:42;21.00;99.90
7646;DHT22;3864;48.180;14.178;2023-09-19T15:47:12;20.90;99.90
7646;DHT22;3864;48.180;14.178;2023-09-19T15:49:39;20.90;99.90
7646;DHT22;3864;48.180;14.178;2023-09-19T15:52:06;20.80;99.90
7646;DHT22;3864;48.180;14.178;2023-09-19T15:54:34;20.80;99.90
7646;DHT22;3864;48.180;14.178;2023-09-19T15:57:07;20.80;99.90
7646;DHT22;3864;48.180;14.178;2023-09-19T15:59:39;20.70;99.90
7646;DHT22;3864;48.180;14.178;2023-09-19T16:02:06;20.70;99.90
7646;DHT22;3864;48.180;14.178;2023-09-19T16:04:33;20.70;99.90
7646;DHT22;3864;48.180;14.178;2023-09-19T16:07:03;20.70;99.90